Twizzle — 2DKS5 — position and weather

sailwx.info

Track history (hours):
 
Tides and Currents Weather Stations Pressure Air Temp Water Temp Dewpoint Dewpoint Depression Visibility Wind Speed Wind Dir Waves Ship Positions

Twizzle

Last reported at 2017-Feb-22 14:33 UTC. Time now 2017-Feb-22 15:18 UTC.
Position N 17°01' W 061°46'.

Length 58 m; draft 3.8 m.

Type: Sailing vessel. MMSI: 235079813.

Date/timePositionNaut miles runAvg speedWind from/ knotsBaromVisibWave heightAir tempDewpointWater temp
2017-Feb-22 14:33N 17°01' W 061°46'0 0.0
2017-Feb-22 13:33N 17°01' W 061°46'0 0.0
2017-Feb-22 12:33N 17°01' W 061°46'0 0.0
2017-Feb-22 11:33N 17°01' W 061°46'0 0.0
2017-Feb-22 10:33N 17°01' W 061°46'0 0.0
2017-Feb-22 09:33N 17°01' W 061°46'0 0.0
2017-Feb-22 08:33N 17°01' W 061°46'0 0.0
2017-Feb-22 07:33N 17°01' W 061°46'0 0.0
2017-Feb-22 06:33N 17°01' W 061°46'0 0.0
2017-Feb-22 05:33N 17°01' W 061°46'0 0.0
2017-Feb-22 04:33N 17°01' W 061°46'0 0.0
2017-Feb-22 03:33N 17°01' W 061°46'0 0.0
2017-Feb-22 02:33N 17°01' W 061°46'0 0.0
2017-Feb-22 01:33N 17°01' W 061°46'0 0.0
2017-Feb-22 00:33N 17°01' W 061°46'0 0.0
2017-Feb-21 23:33N 17°01' W 061°46'0 0.0
2017-Feb-21 22:33N 17°01' W 061°46'0 0.0
2017-Feb-21 21:33N 17°01' W 061°46'0 0.0
2017-Feb-21 20:33N 17°01' W 061°46'0 0.0
2017-Feb-21 19:33N 17°01' W 061°46'0 0.0
2017-Feb-21 16:33N 17°01' W 061°46'0 0.0
2017-Feb-21 15:33N 17°01' W 061°46'0 0.0
2017-Feb-21 14:33N 17°01' W 061°46'0 0.0
2017-Feb-21 13:33N 17°01' W 061°46'1 0.6
2017-Feb-21 12:32N 17°01' W 061°47'0 0.0
2017-Feb-21 11:32N 17°01' W 061°47'0 0.0
2017-Feb-21 10:32N 17°01' W 061°47'0 0.0
2017-Feb-21 09:32N 17°01' W 061°47'0 0.0
2017-Feb-21 08:32N 17°01' W 061°47'0 0.0
2017-Feb-21 07:32N 17°01' W 061°47'0 0.0
2017-Feb-21 06:32N 17°01' W 061°47'0 0.0
2017-Feb-21 05:32N 17°01' W 061°47'0 0.0
2017-Feb-21 04:32N 17°01' W 061°47'8 8.7
2017-Feb-21 03:33N 17°00' W 061°56'1111.5
2017-Feb-21 02:34N 17°07' W 062°06'1111.4
2017-Feb-21 01:33N 17°15' W 062°14'1110.7
2017-Feb-21 00:34N 17°21' W 062°23'1111.2
2017-Feb-20 23:33N 17°28' W 062°32'3210.5
2017-Feb-20 20:28N 17°49' W 062°58'14 9.7
2017-Feb-20 19:04N 18°00' W 063°06'5 8.0
2017-Feb-20 18:29N 18°04' W 063°10'4 4.0
2017-Feb-20 17:31N 18°04' W 063°06'0 0.1
2017-Feb-20 16:32N 18°05' W 063°06'4 3.6
2017-Feb-20 15:33N 18°01' W 063°07'  
2017-Feb-16 21:21N 17°54' W 062°52'5 5.8
2017-Feb-16 20:31N 17°53' W 062°57'21 6.2
2017-Feb-16 17:11N 18°13' W 062°54'710.7
2017-Feb-16 16:32N 18°10' W 063°00'7 6.1
2017-Feb-16 15:25N 18°10' W 063°07'1 0.6
2017-Feb-16 14:27N 18°10' W 063°07'0 0.0
2017-Feb-16 13:27N 18°10' W 063°07'0 0.0
2017-Feb-16 12:23N 18°10' W 063°07'0 0.0
2017-Feb-16 11:30N 18°10' W 063°07'0 0.0
2017-Feb-16 10:30N 18°10' W 063°07'0 0.0
2017-Feb-16 09:33N 18°10' W 063°07'0 0.0
2017-Feb-16 08:33N 18°10' W 063°07'0 0.0
2017-Feb-16 07:32N 18°10' W 063°07'0 0.0
2017-Feb-16 06:32N 18°10' W 063°07'0 0.0
2017-Feb-16 05:18N 18°10' W 063°07'0 0.0
2017-Feb-16 04:33N 18°10' W 063°07'0 0.0
2017-Feb-16 03:24N 18°10' W 063°07'0 0.0
2017-Feb-16 02:24N 18°10' W 063°07'0 0.0
2017-Feb-16 01:27N 18°10' W 063°07'0 0.0
2017-Feb-16 00:27N 18°10' W 063°07'0 0.0
2017-Feb-15 23:27N 18°10' W 063°07'0 0.0
2017-Feb-15 22:27N 18°10' W 063°07'0 0.0
2017-Feb-15 21:30N 18°10' W 063°07'4 4.2
2017-Feb-15 20:31N 18°11' W 063°11'4 3.8
2017-Feb-15 19:22N 18°16' W 063°11'0 0.0
2017-Feb-15 18:22N 18°16' W 063°11'0 0.0
2017-Feb-15 17:28N 18°16' W 063°11'5 5.2
2017-Feb-15 16:27N 18°10' W 063°11'4 4.4
2017-Feb-15 15:32N 18°10' W 063°07'0 0.0
2017-Feb-15 14:32N 18°10' W 063°07'0 0.0
2017-Feb-15 13:32N 18°10' W 063°07'0 0.0
2017-Feb-15 12:32N 18°10' W 063°07'0 0.0
2017-Feb-15 11:32N 18°10' W 063°07'0 0.0
2017-Feb-15 10:23N 18°10' W 063°07'0 0.0
2017-Feb-15 09:23N 18°10' W 063°07'0 0.0
2017-Feb-15 08:26N 18°10' W 063°07'0 0.0
2017-Feb-15 07:26N 18°10' W 063°07'0 0.0
2017-Feb-15 06:26N 18°10' W 063°07'0 0.0
2017-Feb-15 04:29N 18°10' W 063°07'0 0.0
2017-Feb-15 03:32N 18°10' W 063°07'0 0.0
2017-Feb-15 02:32N 18°10' W 063°07'0 0.0
2017-Feb-15 01:32N 18°10' W 063°07'0 0.0
2017-Feb-15 00:32N 18°10' W 063°07'0 0.0
2017-Feb-14 23:32N 18°10' W 063°07'3 3.5
2017-Feb-14 22:33N 18°09' W 063°10'3 2.6
2017-Feb-14 21:31N 18°11' W 063°08'2 0.6
2017-Feb-14 19:10N 18°13' W 063°07'0 0.0
2017-Feb-14 12:31N 18°13' W 063°07'6 6.2
2017-Feb-14 11:33N 18°13' W 063°14'8 7.9
2017-Feb-14 10:31N 18°14' W 063°22'8 7.6
2017-Feb-14 09:31N 18°15' W 063°30'8 7.9
2017-Feb-14 08:28N 18°16' W 063°39'32 8.1
2017-Feb-14 04:28N 18°21' W 064°12'7 7.7
2017-Feb-14 03:33N 18°22' W 064°20'8 7.6
2017-Feb-14 02:32N 18°24' W 064°28'5 2.3
2017-Feb-14 00:19N 18°29' W 064°27'3 0.9
2017-Feb-13 21:33N 18°26' W 064°27'0 0.1
2017-Feb-13 20:31N 18°26' W 064°27'2 2.1
2017-Feb-13 19:33N 18°25' W 064°29'4 3.7
2017-Feb-13 18:29N 18°23' W 064°32'0 0.0
2017-Feb-13 17:29N 18°23' W 064°32'0 0.0
2017-Feb-13 16:29N 18°23' W 064°32'0 0.0
2017-Feb-13 15:29N 18°23' W 064°32'0 0.0
2017-Feb-13 14:29N 18°23' W 064°32'0 0.0
2017-Feb-13 13:29N 18°23' W 064°32'7 7.5
2017-Feb-13 12:34N 18°22' W 064°39'3 2.9
2017-Feb-13 11:27N 18°23' W 064°43'0 0.0
2017-Feb-13 10:21N 18°23' W 064°43'0 0.0
2017-Feb-13 09:27N 18°23' W 064°43'0 0.0
2017-Feb-13 08:33N 18°23' W 064°43'0 0.0
2017-Feb-13 07:27N 18°23' W 064°43'0 0.0
2017-Feb-13 06:33N 18°23' W 064°43'0 0.0
2017-Feb-13 05:33N 18°23' W 064°43'0 0.0
2017-Feb-13 04:33N 18°23' W 064°43'0 0.0
2017-Feb-13 03:33N 18°23' W 064°43'0 0.0
2017-Feb-13 02:33N 18°23' W 064°43'0 0.0
2017-Feb-13 01:33N 18°23' W 064°43'0 0.0
2017-Feb-13 00:33N 18°23' W 064°43'0 0.1
2017-Feb-12 23:33N 18°23' W 064°43'8 2.6
2017-Feb-12 20:33N 18°21' W 064°35'7 7.5
2017-Feb-12 19:33N 18°23' W 064°42'3 2.9
2017-Feb-12 18:28N 18°26' W 064°43'0 0.0
2017-Feb-12 17:28N 18°26' W 064°43'0 0.0
2017-Feb-12 16:28N 18°26' W 064°43'1 1.6
2017-Feb-12 15:33N 18°25' W 064°43'  
Track history (hours):
 
Tides and Currents Weather Stations Pressure Air Temp Water Temp Dewpoint Dewpoint Depression Visibility Wind Speed Wind Dir Waves Ship Positions

Twizzle

Last reported at 2017-Feb-22 14:33 UTC. Time now 2017-Feb-22 15:18 UTC.
Position N 17°01' W 061°46'.

Length 58 m; draft 3.8 m.

Type: Sailing vessel. MMSI: 235079813.

Date/timePositionNaut miles runAvg speedWind from/ knotsBaromVisibWave heightAir tempDewpointWater temp
2017-Feb-22 14:33N 17°01' W 061°46'0 0.0
2017-Feb-22 13:33N 17°01' W 061°46'0 0.0
2017-Feb-22 12:33N 17°01' W 061°46'0 0.0
2017-Feb-22 11:33N 17°01' W 061°46'0 0.0
2017-Feb-22 10:33N 17°01' W 061°46'0 0.0
2017-Feb-22 09:33N 17°01' W 061°46'0 0.0
2017-Feb-22 08:33N 17°01' W 061°46'0 0.0
2017-Feb-22 07:33N 17°01' W 061°46'0 0.0
2017-Feb-22 06:33N 17°01' W 061°46'0 0.0
2017-Feb-22 05:33N 17°01' W 061°46'0 0.0
2017-Feb-22 04:33N 17°01' W 061°46'0 0.0
2017-Feb-22 03:33N 17°01' W 061°46'0 0.0
2017-Feb-22 02:33N 17°01' W 061°46'0 0.0
2017-Feb-22 01:33N 17°01' W 061°46'0 0.0
2017-Feb-22 00:33N 17°01' W 061°46'0 0.0
2017-Feb-21 23:33N 17°01' W 061°46'0 0.0
2017-Feb-21 22:33N 17°01' W 061°46'0 0.0
2017-Feb-21 21:33N 17°01' W 061°46'0 0.0
2017-Feb-21 20:33N 17°01' W 061°46'0 0.0
2017-Feb-21 19:33N 17°01' W 061°46'0 0.0
2017-Feb-21 16:33N 17°01' W 061°46'0 0.0
2017-Feb-21 15:33N 17°01' W 061°46'0 0.0
2017-Feb-21 14:33N 17°01' W 061°46'0 0.0
2017-Feb-21 13:33N 17°01' W 061°46'1 0.6
2017-Feb-21 12:32N 17°01' W 061°47'0 0.0
2017-Feb-21 11:32N 17°01' W 061°47'0 0.0
2017-Feb-21 10:32N 17°01' W 061°47'0 0.0
2017-Feb-21 09:32N 17°01' W 061°47'0 0.0
2017-Feb-21 08:32N 17°01' W 061°47'0 0.0
2017-Feb-21 07:32N 17°01' W 061°47'0 0.0
2017-Feb-21 06:32N 17°01' W 061°47'0 0.0
2017-Feb-21 05:32N 17°01' W 061°47'0 0.0
2017-Feb-21 04:32N 17°01' W 061°47'8 8.7
2017-Feb-21 03:33N 17°00' W 061°56'1111.5
2017-Feb-21 02:34N 17°07' W 062°06'1111.4
2017-Feb-21 01:33N 17°15' W 062°14'1110.7
2017-Feb-21 00:34N 17°21' W 062°23'1111.2
2017-Feb-20 23:33N 17°28' W 062°32'3210.5
2017-Feb-20 20:28N 17°49' W 062°58'14 9.7
2017-Feb-20 19:04N 18°00' W 063°06'5 8.0
2017-Feb-20 18:29N 18°04' W 063°10'4 4.0
2017-Feb-20 17:31N 18°04' W 063°06'0 0.1
2017-Feb-20 16:32N 18°05' W 063°06'4 3.6
2017-Feb-20 15:33N 18°01' W 063°07'  
2017-Feb-16 21:21N 17°54' W 062°52'5 5.8
2017-Feb-16 20:31N 17°53' W 062°57'21 6.2
2017-Feb-16 17:11N 18°13' W 062°54'710.7
2017-Feb-16 16:32N 18°10' W 063°00'7 6.1
2017-Feb-16 15:25N 18°10' W 063°07'1 0.6
2017-Feb-16 14:27N 18°10' W 063°07'0 0.0
2017-Feb-16 13:27N 18°10' W 063°07'0 0.0
2017-Feb-16 12:23N 18°10' W 063°07'0 0.0
2017-Feb-16 11:30N 18°10' W 063°07'0 0.0
2017-Feb-16 10:30N 18°10' W 063°07'0 0.0
2017-Feb-16 09:33N 18°10' W 063°07'0 0.0
2017-Feb-16 08:33N 18°10' W 063°07'0 0.0
2017-Feb-16 07:32N 18°10' W 063°07'0 0.0
2017-Feb-16 06:32N 18°10' W 063°07'0 0.0
2017-Feb-16 05:18N 18°10' W 063°07'0 0.0
2017-Feb-16 04:33N 18°10' W 063°07'0 0.0
2017-Feb-16 03:24N 18°10' W 063°07'0 0.0
2017-Feb-16 02:24N 18°10' W 063°07'0 0.0
2017-Feb-16 01:27N 18°10' W 063°07'0 0.0
2017-Feb-16 00:27N 18°10' W 063°07'0 0.0
2017-Feb-15 23:27N 18°10' W 063°07'0 0.0
2017-Feb-15 22:27N 18°10' W 063°07'0 0.0
2017-Feb-15 21:30N 18°10' W 063°07'4 4.2
2017-Feb-15 20:31N 18°11' W 063°11'4 3.8
2017-Feb-15 19:22N 18°16' W 063°11'0 0.0
2017-Feb-15 18:22N 18°16' W 063°11'0 0.0
2017-Feb-15 17:28N 18°16' W 063°11'5 5.2
2017-Feb-15 16:27N 18°10' W 063°11'4 4.4
2017-Feb-15 15:32N 18°10' W 063°07'0 0.0
2017-Feb-15 14:32N 18°10' W 063°07'0 0.0
2017-Feb-15 13:32N 18°10' W 063°07'0 0.0
2017-Feb-15 12:32N 18°10' W 063°07'0 0.0
2017-Feb-15 11:32N 18°10' W 063°07'0 0.0
2017-Feb-15 10:23N 18°10' W 063°07'0 0.0
2017-Feb-15 09:23N 18°10' W 063°07'0 0.0
2017-Feb-15 08:26N 18°10' W 063°07'0 0.0
2017-Feb-15 07:26N 18°10' W 063°07'0 0.0
2017-Feb-15 06:26N 18°10' W 063°07'0 0.0
2017-Feb-15 04:29N 18°10' W 063°07'0 0.0
2017-Feb-15 03:32N 18°10' W 063°07'0 0.0
2017-Feb-15 02:32N 18°10' W 063°07'0 0.0
2017-Feb-15 01:32N 18°10' W 063°07'0 0.0
2017-Feb-15 00:32N 18°10' W 063°07'0 0.0
2017-Feb-14 23:32N 18°10' W 063°07'3 3.5
2017-Feb-14 22:33N 18°09' W 063°10'3 2.6
2017-Feb-14 21:31N 18°11' W 063°08'2 0.6
2017-Feb-14 19:10N 18°13' W 063°07'0 0.0
2017-Feb-14 12:31N 18°13' W 063°07'6 6.2
2017-Feb-14 11:33N 18°13' W 063°14'8 7.9
2017-Feb-14 10:31N 18°14' W 063°22'8 7.6
2017-Feb-14 09:31N 18°15' W 063°30'8 7.9
2017-Feb-14 08:28N 18°16' W 063°39'32 8.1
2017-Feb-14 04:28N 18°21' W 064°12'7 7.7
2017-Feb-14 03:33N 18°22' W 064°20'8 7.6
2017-Feb-14 02:32N 18°24' W 064°28'5 2.3
2017-Feb-14 00:19N 18°29' W 064°27'3 0.9
2017-Feb-13 21:33N 18°26' W 064°27'0 0.1
2017-Feb-13 20:31N 18°26' W 064°27'2 2.1
2017-Feb-13 19:33N 18°25' W 064°29'4 3.7
2017-Feb-13 18:29N 18°23' W 064°32'0 0.0
2017-Feb-13 17:29N 18°23' W 064°32'0 0.0
2017-Feb-13 16:29N 18°23' W 064°32'0 0.0
2017-Feb-13 15:29N 18°23' W 064°32'0 0.0
2017-Feb-13 14:29N 18°23' W 064°32'0 0.0
2017-Feb-13 13:29N 18°23' W 064°32'7 7.5
2017-Feb-13 12:34N 18°22' W 064°39'3 2.9
2017-Feb-13 11:27N 18°23' W 064°43'0 0.0
2017-Feb-13 10:21N 18°23' W 064°43'0 0.0
2017-Feb-13 09:27N 18°23' W 064°43'0 0.0
2017-Feb-13 08:33N 18°23' W 064°43'0 0.0
2017-Feb-13 07:27N 18°23' W 064°43'0 0.0
2017-Feb-13 06:33N 18°23' W 064°43'0 0.0
2017-Feb-13 05:33N 18°23' W 064°43'0 0.0
2017-Feb-13 04:33N 18°23' W 064°43'0 0.0
2017-Feb-13 03:33N 18°23' W 064°43'0 0.0
2017-Feb-13 02:33N 18°23' W 064°43'0 0.0
2017-Feb-13 01:33N 18°23' W 064°43'0 0.0
2017-Feb-13 00:33N 18°23' W 064°43'0 0.1
2017-Feb-12 23:33N 18°23' W 064°43'8 2.6
2017-Feb-12 20:33N 18°21' W 064°35'7 7.5
2017-Feb-12 19:33N 18°23' W 064°42'3 2.9
2017-Feb-12 18:28N 18°26' W 064°43'0 0.0
2017-Feb-12 17:28N 18°26' W 064°43'0 0.0
2017-Feb-12 16:28N 18°26' W 064°43'1 1.6
2017-Feb-12 15:33N 18°25' W 064°43'  

Dump ship's entire track history